sensor_id;sensor_type;location;lat;lon;timestamp;pressure;altitude;pressure_sealevel;temperature;humidity
59588;BME280;45412;54.472;18.464;2023-01-26T00:02:16;100656.95;;;-2.56;89.94
59588;BME280;45412;54.472;18.464;2023-01-26T00:05:05;100649.64;;;-2.56;89.92
59588;BME280;45412;54.472;18.464;2023-01-26T00:07:53;100647.44;;;-2.60;89.77
59588;BME280;45412;54.472;18.464;2023-01-26T00:10:41;100649.20;;;-2.62;89.81
59588;BME280;45412;54.472;18.464;2023-01-26T00:13:37;100652.52;;;-2.63;90.07
59588;BME280;45412;54.472;18.464;2023-01-26T00:16:26;100655.66;;;-2.64;89.92
59588;BME280;45412;54.472;18.464;2023-01-26T00:19:14;100651.66;;;-2.64;90.12
59588;BME280;45412;54.472;18.464;2023-01-26T00:22:02;100647.48;;;-2.63;90.13
59588;BME280;45412;54.472;18.464;2023-01-26T00:24:50;100650.42;;;-2.62;90.12
59588;BME280;45412;54.472;18.464;2023-01-26T00:27:38;100647.35;;;-2.66;90.14
59588;BME280;45412;54.472;18.464;2023-01-26T00:30:26;100652.41;;;-2.67;90.10
59588;BME280;45412;54.472;18.464;2023-01-26T00:33:15;100651.58;;;-2.70;90.24
59588;BME280;45412;54.472;18.464;2023-01-26T00:36:04;100648.46;;;-2.71;90.36
59588;BME280;45412;54.472;18.464;2023-01-26T00:38:51;100645.88;;;-2.72;90.66
59588;BME280;45412;54.472;18.464;2023-01-26T00:41:39;100639.82;;;-2.74;90.68
59588;BME280;45412;54.472;18.464;2023-01-26T00:44:45;100629.70;;;-2.71;90.78
59588;BME280;45412;54.472;18.464;2023-01-26T00:47:33;100629.25;;;-2.64;90.95
59588;BME280;45412;54.472;18.464;2023-01-26T00:50:21;100623.27;;;-2.58;90.64
59588;BME280;45412;54.472;18.464;2023-01-26T00:53:09;100617.52;;;-2.58;90.27
59588;BME280;45412;54.472;18.464;2023-01-26T00:55:57;100606.15;;;-2.64;90.34
59588;BME280;45412;54.472;18.464;2023-01-26T00:58:45;100604.64;;;-2.68;90.30
59588;BME280;45412;54.472;18.464;2023-01-26T01:01:33;100602.52;;;-2.77;90.61
59588;BME280;45412;54.472;18.464;2023-01-26T01:04:21;100601.55;;;-2.82;90.77
59588;BME280;45412;54.472;18.464;2023-01-26T01:07:09;100597.60;;;-2.86;91.32
59588;BME280;45412;54.472;18.464;2023-01-26T01:09:57;100591.88;;;-2.86;91.38
59588;BME280;45412;54.472;18.464;2023-01-26T01:12:47;100590.61;;;-2.83;91.51
59588;BME280;45412;54.472;18.464;2023-01-26T01:15:37;100591.08;;;-2.79;91.36
59588;BME280;45412;54.472;18.464;2023-01-26T01:18:25;100599.39;;;-2.78;91.27
59588;BME280;45412;54.472;18.464;2023-01-26T01:21:15;100603.23;;;-2.79;91.57
59588;BME280;45412;54.472;18.464;2023-01-26T01:24:04;100601.55;;;-2.82;91.34
59588;BME280;45412;54.472;18.464;2023-01-26T01:26:52;100606.40;;;-2.82;91.50
59588;BME280;45412;54.472;18.464;2023-01-26T01:29:40;100610.21;;;-2.82;91.65
59588;BME280;45412;54.472;18.464;2023-01-26T01:32:28;100611.79;;;-2.83;91.45
59588;BME280;45412;54.472;18.464;2023-01-26T01:35:16;100601.14;;;-2.90;91.74
59588;BME280;45412;54.472;18.464;2023-01-26T01:38:04;100604.77;;;-2.90;91.77
59588;BME280;45412;54.472;18.464;2023-01-26T01:40:53;100602.17;;;-2.90;92.00
59588;BME280;45412;54.472;18.464;2023-01-26T01:43:41;100607.31;;;-2.85;91.67
59588;BME280;45412;54.472;18.464;2023-01-26T01:46:32;100602.54;;;-2.79;92.27
59588;BME280;45412;54.472;18.464;2023-01-26T01:49:50;100592.62;;;-2.77;91.72
59588;BME280;45412;54.472;18.464;2023-01-26T01:52:40;100577.15;;;-2.77;91.69
59588;BME280;45412;54.472;18.464;2023-01-26T01:55:28;100569.88;;;-2.79;91.66
59588;BME280;45412;54.472;18.464;2023-01-26T01:58:16;100565.20;;;-2.80;91.82
59588;BME280;45412;54.472;18.464;2023-01-26T02:01:04;100565.18;;;-2.79;91.64
59588;BME280;45412;54.472;18.464;2023-01-26T02:03:57;100568.79;;;-2.75;91.74
59588;BME280;45412;54.472;18.464;2023-01-26T02:06:55;100567.48;;;-2.68;91.66
59588;BME280;45412;54.472;18.464;2023-01-26T02:09:44;100561.52;;;-2.65;91.35
59588;BME280;45412;54.472;18.464;2023-01-26T02:12:54;100560.27;;;-2.64;91.19
59588;BME280;45412;54.472;18.464;2023-01-26T02:15:48;100554.86;;;-2.62;91.08
59588;BME280;45412;54.472;18.464;2023-01-26T02:18:37;100553.11;;;-2.62;91.14
59588;BME280;45412;54.472;18.464;2023-01-26T02:21:25;100549.64;;;-2.60;91.20
59588;BME280;45412;54.472;18.464;2023-01-26T02:24:28;100551.55;;;-2.61;91.12
59588;BME280;45412;54.472;18.464;2023-01-26T02:27:20;100549.96;;;-2.60;91.27
59588;BME280;45412;54.472;18.464;2023-01-26T02:30:09;100555.13;;;-2.57;91.27
59588;BME280;45412;54.472;18.464;2023-01-26T02:33:01;100544.98;;;-2.53;91.25
59588;BME280;45412;54.472;18.464;2023-01-26T02:35:49;100537.35;;;-2.53;90.95
59588;BME280;45412;54.472;18.464;2023-01-26T02:38:43;100532.54;;;-2.56;90.73
59588;BME280;45412;54.472;18.464;2023-01-26T02:41:33;100526.86;;;-2.60;90.74
59588;BME280;45412;54.472;18.464;2023-01-26T02:44:40;100524.31;;;-2.64;90.99
59588;BME280;45412;54.472;18.464;2023-01-26T02:47:30;100522.45;;;-2.67;91.07
59588;BME280;45412;54.472;18.464;2023-01-26T02:50:18;100524.39;;;-2.68;91.23
59588;BME280;45412;54.472;18.464;2023-01-26T02:53:06;100521.98;;;-2.70;91.32
59588;BME280;45412;54.472;18.464;2023-01-26T02:55:55;100519.17;;;-2.68;91.53
59588;BME280;45412;54.472;18.464;2023-01-26T02:58:43;100517.59;;;-2.67;91.42
59588;BME280;45412;54.472;18.464;2023-01-26T03:01:31;100522.42;;;-2.65;91.36
59588;BME280;45412;54.472;18.464;2023-01-26T03:04:19;100528.61;;;-2.61;91.47
59588;BME280;45412;54.472;18.464;2023-01-26T03:07:07;100530.45;;;-2.57;91.26
59588;BME280;45412;54.472;18.464;2023-01-26T03:09:55;100523.44;;;-2.52;91.37
59588;BME280;45412;54.472;18.464;2023-01-26T03:12:45;100529.98;;;-2.48;91.36
59588;BME280;45412;54.472;18.464;2023-01-26T03:15:33;100527.52;;;-2.47;91.11
59588;BME280;45412;54.472;18.464;2023-01-26T03:18:29;100528.75;;;-2.48;91.06
59588;BME280;45412;54.472;18.464;2023-01-26T03:21:41;100523.38;;;-2.48;91.10
59588;BME280;45412;54.472;18.464;2023-01-26T03:24:47;100518.19;;;-2.50;90.87
59588;BME280;45412;54.472;18.464;2023-01-26T03:27:53;100512.31;;;-2.52;91.19
59588;BME280;45412;54.472;18.464;2023-01-26T03:30:41;100511.92;;;-2.49;91.29
59588;BME280;45412;54.472;18.464;2023-01-26T03:33:30;100509.27;;;-2.47;91.04
59588;BME280;45412;54.472;18.464;2023-01-26T03:36:19;100511.38;;;-2.48;91.00
59588;BME280;45412;54.472;18.464;2023-01-26T03:39:08;100514.36;;;-2.50;90.79
59588;BME280;45412;54.472;18.464;2023-01-26T03:41:56;100513.86;;;-2.51;91.13
59588;BME280;45412;54.472;18.464;2023-01-26T03:45:03;100517.52;;;-2.51;91.07
59588;BME280;45412;54.472;18.464;2023-01-26T03:48:11;100513.13;;;-2.49;91.20
59588;BME280;45412;54.472;18.464;2023-01-26T03:51:18;100512.03;;;-2.46;91.46
59588;BME280;45412;54.472;18.464;2023-01-26T03:54:24;100508.68;;;-2.43;91.23
59588;BME280;45412;54.472;18.464;2023-01-26T03:57:30;100506.08;;;-2.43;91.17
59588;BME280;45412;54.472;18.464;2023-01-26T04:00:18;100502.92;;;-2.42;91.04
59588;BME280;45412;54.472;18.464;2023-01-26T04:03:09;100497.73;;;-2.43;90.95
59588;BME280;45412;54.472;18.464;2023-01-26T04:06:15;100499.13;;;-2.43;90.95
59588;BME280;45412;54.472;18.464;2023-01-26T04:09:22;100494.96;;;-2.44;90.74
59588;BME280;45412;54.472;18.464;2023-01-26T04:12:10;100495.48;;;-2.53;90.83
59588;BME280;45412;54.472;18.464;2023-01-26T04:15:08;100490.68;;;-2.58;91.26
59588;BME280;45412;54.472;18.464;2023-01-26T04:18:15;100486.47;;;-2.55;91.70
59588;BME280;45412;54.472;18.464;2023-01-26T04:21:21;100490.05;;;-2.52;91.53
59588;BME280;45412;54.472;18.464;2023-01-26T04:24:24;100487.93;;;-2.49;91.56
59588;BME280;45412;54.472;18.464;2023-01-26T04:27:16;100482.71;;;-2.49;91.63
59588;BME280;45412;54.472;18.464;2023-01-26T04:30:07;100476.42;;;-2.47;91.49
59588;BME280;45412;54.472;18.464;2023-01-26T04:32:56;100482.98;;;-2.44;91.47
59588;BME280;45412;54.472;18.464;2023-01-26T04:35:45;100483.79;;;-2.40;91.53
59588;BME280;45412;54.472;18.464;2023-01-26T04:38:34;100475.77;;;-2.39;91.48
59588;BME280;45412;54.472;18.464;2023-01-26T04:41:23;100478.63;;;-2.33;91.04
59588;BME280;45412;54.472;18.464;2023-01-26T04:44:18;100481.77;;;-2.34;90.83
59588;BME280;45412;54.472;18.464;2023-01-26T04:47:06;100480.92;;;-2.36;90.37
59588;BME280;45412;54.472;18.464;2023-01-26T04:49:54;100484.63;;;-2.40;90.57
59588;BME280;45412;54.472;18.464;2023-01-26T04:52:43;100482.88;;;-2.39;90.93
59588;BME280;45412;54.472;18.464;2023-01-26T04:55:31;100482.17;;;-2.38;90.58
59588;BME280;45412;54.472;18.464;2023-01-26T04:58:20;100481.45;;;-2.36;90.55
59588;BME280;45412;54.472;18.464;2023-01-26T05:01:08;100481.27;;;-2.36;90.59
59588;BME280;45412;54.472;18.464;2023-01-26T05:03:59;100479.90;;;-2.37;90.52
59588;BME280;45412;54.472;18.464;2023-01-26T05:06:48;100479.05;;;-2.37;90.37
59588;BME280;45412;54.472;18.464;2023-01-26T05:09:36;100479.24;;;-2.39;90.48
59588;BME280;45412;54.472;18.464;2023-01-26T05:12:45;100479.11;;;-2.42;90.60
59588;BME280;45412;54.472;18.464;2023-01-26T05:16:05;100475.08;;;-2.40;90.35
59588;BME280;45412;54.472;18.464;2023-01-26T05:19:19;100478.55;;;-2.40;90.48
59588;BME280;45412;54.472;18.464;2023-01-26T05:22:30;100476.98;;;-2.39;90.48
59588;BME280;45412;54.472;18.464;2023-01-26T05:25:43;100478.36;;;-2.38;90.55
59588;BME280;45412;54.472;18.464;2023-01-26T05:28:34;100479.20;;;-2.36;90.83
59588;BME280;45412;54.472;18.464;2023-01-26T05:31:22;100479.40;;;-2.39;90.56
59588;BME280;45412;54.472;18.464;2023-01-26T05:34:10;100483.81;;;-2.42;90.64
59588;BME280;45412;54.472;18.464;2023-01-26T05:36:58;100485.55;;;-2.42;90.79
59588;BME280;45412;54.472;18.464;2023-01-26T05:39:46;100485.71;;;-2.42;90.87
59588;BME280;45412;54.472;18.464;2023-01-26T05:42:34;100482.59;;;-2.41;90.79
59588;BME280;45412;54.472;18.464;2023-01-26T05:45:48;100487.56;;;-2.38;90.83
59588;BME280;45412;54.472;18.464;2023-01-26T05:48:37;100493.21;;;-2.33;90.67
59588;BME280;45412;54.472;18.464;2023-01-26T05:51:26;100492.02;;;-2.34;90.44
59588;BME280;45412;54.472;18.464;2023-01-26T05:54:13;100493.80;;;-2.36;90.54
59588;BME280;45412;54.472;18.464;2023-01-26T05:57:02;100491.23;;;-2.40;90.61
59588;BME280;45412;54.472;18.464;2023-01-26T05:59:52;100488.63;;;-2.39;90.86
59588;BME280;45412;54.472;18.464;2023-01-26T06:02:40;100495.40;;;-2.39;91.01
59588;BME280;45412;54.472;18.464;2023-01-26T06:05:32;100498.70;;;-2.39;90.96
59588;BME280;45412;54.472;18.464;2023-01-26T06:08:25;100502.02;;;-2.40;91.01
59588;BME280;45412;54.472;18.464;2023-01-26T06:11:32;100499.23;;;-2.40;91.26
59588;BME280;45412;54.472;18.464;2023-01-26T06:14:35;100495.21;;;-2.38;91.31
59588;BME280;45412;54.472;18.464;2023-01-26T06:17:23;100491.88;;;-2.36;91.24
59588;BME280;45412;54.472;18.464;2023-01-26T06:20:16;100487.50;;;-2.34;91.08
59588;BME280;45412;54.472;18.464;2023-01-26T06:23:14;100490.45;;;-2.34;90.90
59588;BME280;45412;54.472;18.464;2023-01-26T06:26:04;100486.95;;;-2.33;91.07
59588;BME280;45412;54.472;18.464;2023-01-26T06:28:54;100485.73;;;-2.32;91.07
59588;BME280;45412;54.472;18.464;2023-01-26T06:31:42;100486.63;;;-2.34;90.98
59588;BME280;45412;54.472;18.464;2023-01-26T06:34:31;100485.55;;;-2.32;91.18
59588;BME280;45412;54.472;18.464;2023-01-26T06:37:19;100478.91;;;-2.30;91.39
59588;BME280;45412;54.472;18.464;2023-01-26T06:40:13;100480.27;;;-2.29;91.30
59588;BME280;45412;54.472;18.464;2023-01-26T06:43:01;100480.10;;;-2.29;91.32
59588;BME280;45412;54.472;18.464;2023-01-26T06:45:55;100483.36;;;-2.26;91.27
59588;BME280;45412;54.472;18.464;2023-01-26T06:48:44;100481.23;;;-2.24;91.07
59588;BME280;45412;54.472;18.464;2023-01-26T06:54:29;100481.04;;;-2.23;91.20
59588;BME280;45412;54.472;18.464;2023-01-26T06:57:40;100479.04;;;-2.19;91.41
59588;BME280;45412;54.472;18.464;2023-01-26T07:00:50;100477.88;;;-2.12;91.28
59588;BME280;45412;54.472;18.464;2023-01-26T07:03:50;100476.55;;;-2.16;91.35
59588;BME280;45412;54.472;18.464;2023-01-26T07:06:39;100467.08;;;-2.30;91.51
59588;BME280;45412;54.472;18.464;2023-01-26T07:09:27;100466.17;;;-2.28;92.03
59588;BME280;45412;54.472;18.464;2023-01-26T07:12:17;100464.58;;;-2.26;92.22
59588;BME280;45412;54.472;18.464;2023-01-26T07:15:05;100463.89;;;-2.27;92.29
59588;BME280;45412;54.472;18.464;2023-01-26T07:17:55;100463.45;;;-2.21;92.30
59588;BME280;45412;54.472;18.464;2023-01-26T07:20:43;100462.23;;;-2.21;92.24
59588;BME280;45412;54.472;18.464;2023-01-26T07:23:34;100455.23;;;-2.18;92.27
59588;BME280;45412;54.472;18.464;2023-01-26T07:26:22;100448.59;;;-2.17;92.57
59588;BME280;45412;54.472;18.464;2023-01-26T07:29:10;100448.23;;;-2.16;92.36
59588;BME280;45412;54.472;18.464;2023-01-26T07:31:58;100455.85;;;-2.15;92.66
59588;BME280;45412;54.472;18.464;2023-01-26T07:34:47;100463.10;;;-2.11;92.61
59588;BME280;45412;54.472;18.464;2023-01-26T07:37:35;100453.73;;;-2.13;92.67
59588;BME280;45412;54.472;18.464;2023-01-26T07:40:23;100448.02;;;-2.05;92.89
59588;BME280;45412;54.472;18.464;2023-01-26T07:43:12;100451.45;;;-2.02;92.61
59588;BME280;45412;54.472;18.464;2023-01-26T07:46:08;100451.48;;;-2.04;92.82
59588;BME280;45412;54.472;18.464;2023-01-26T07:48:59;100448.80;;;-2.10;92.99
59588;BME280;45412;54.472;18.464;2023-01-26T07:51:47;100454.73;;;-2.11;93.11
59588;BME280;45412;54.472;18.464;2023-01-26T07:54:35;100451.91;;;-2.18;93.51
59588;BME280;45412;54.472;18.464;2023-01-26T07:57:23;100450.06;;;-2.21;93.78
59588;BME280;45412;54.472;18.464;2023-01-26T08:00:12;100445.39;;;-2.22;94.11
59588;BME280;45412;54.472;18.464;2023-01-26T08:03:00;100446.55;;;-2.19;94.39
59588;BME280;45412;54.472;18.464;2023-01-26T08:05:51;100447.14;;;-2.14;94.46
59588;BME280;45412;54.472;18.464;2023-01-26T08:08:39;100449.36;;;-2.11;94.35
59588;BME280;45412;54.472;18.464;2023-01-26T08:11:27;100445.84;;;-2.10;94.43
59588;BME280;45412;54.472;18.464;2023-01-26T08:14:15;100446.48;;;-2.06;94.55
59588;BME280;45412;54.472;18.464;2023-01-26T08:17:03;100440.48;;;-2.02;94.43
59588;BME280;45412;54.472;18.464;2023-01-26T08:19:52;100429.66;;;-2.00;94.32
59588;BME280;45412;54.472;18.464;2023-01-26T08:22:40;100423.13;;;-2.04;94.55
59588;BME280;45412;54.472;18.464;2023-01-26T08:25:28;100415.48;;;-2.05;94.47
59588;BME280;45412;54.472;18.464;2023-01-26T08:28:16;100417.36;;;-2.03;94.82
59588;BME280;45412;54.472;18.464;2023-01-26T08:31:11;100419.39;;;-1.99;94.93
59588;BME280;45412;54.472;18.464;2023-01-26T08:33:59;100421.19;;;-1.95;94.93
59588;BME280;45412;54.472;18.464;2023-01-26T08:36:48;100424.64;;;-1.84;95.11
59588;BME280;45412;54.472;18.464;2023-01-26T08:39:35;100427.95;;;-1.76;94.74
59588;BME280;45412;54.472;18.464;2023-01-26T08:42:23;100427.81;;;-1.70;94.72
59588;BME280;45412;54.472;18.464;2023-01-26T08:45:11;100426.96;;;-1.62;94.45
59588;BME280;45412;54.472;18.464;2023-01-26T08:47:59;100425.80;;;-1.56;94.39
59588;BME280;45412;54.472;18.464;2023-01-26T08:50:47;100422.92;;;-1.52;93.97
59588;BME280;45412;54.472;18.464;2023-01-26T08:53:36;100420.36;;;-1.55;93.94
59588;BME280;45412;54.472;18.464;2023-01-26T08:56:24;100420.55;;;-1.56;94.08
59588;BME280;45412;54.472;18.464;2023-01-26T08:59:12;100418.16;;;-1.50;94.40
59588;BME280;45412;54.472;18.464;2023-01-26T09:02:00;100416.19;;;-1.47;94.15
59588;BME280;45412;54.472;18.464;2023-01-26T09:04:48;100413.72;;;-1.45;93.89
59588;BME280;45412;54.472;18.464;2023-01-26T09:07:35;100418.70;;;-1.43;93.90
59588;BME280;45412;54.472;18.464;2023-01-26T09:10:24;100423.27;;;-1.45;93.75
59588;BME280;45412;54.472;18.464;2023-01-26T09:13:12;100428.48;;;-1.44;94.05
59588;BME280;45412;54.472;18.464;2023-01-26T09:16:12;100423.06;;;-1.51;94.17
59588;BME280;45412;54.472;18.464;2023-01-26T09:19:02;100420.30;;;-1.52;94.36
59588;BME280;45412;54.472;18.464;2023-01-26T09:21:55;100416.43;;;-1.50;94.52
59588;BME280;45412;54.472;18.464;2023-01-26T09:24:45;100413.17;;;-1.52;94.69
59588;BME280;45412;54.472;18.464;2023-01-26T09:27:33;100419.47;;;-1.53;94.91
59588;BME280;45412;54.472;18.464;2023-01-26T09:30:21;100422.33;;;-1.49;94.91
59588;BME280;45412;54.472;18.464;2023-01-26T09:33:11;100420.84;;;-1.45;94.94
59588;BME280;45412;54.472;18.464;2023-01-26T09:36:08;100411.52;;;-1.41;94.89
59588;BME280;45412;54.472;18.464;2023-01-26T09:38:56;100404.52;;;-1.31;94.97
59588;BME280;45412;54.472;18.464;2023-01-26T09:51:26;100399.95;;;-1.14;93.93
59588;BME280;45412;54.472;18.464;2023-01-26T09:54:38;100396.10;;;-1.14;94.25
59588;BME280;45412;54.472;18.464;2023-01-26T09:58:14;100398.13;;;-1.19;94.23
59588;BME280;45412;54.472;18.464;2023-01-26T10:00:59;100397.08;;;-1.19;94.30
59588;BME280;45412;54.472;18.464;2023-01-26T10:06:51;100405.46;;;-1.12;94.66
59588;BME280;45412;54.472;18.464;2023-01-26T10:10:03;100403.80;;;-1.16;94.47
59588;BME280;45412;54.472;18.464;2023-01-26T10:12:53;100404.30;;;-1.14;94.94
59588;BME280;45412;54.472;18.464;2023-01-26T10:15:46;100406.45;;;-1.10;95.17
59588;BME280;45412;54.472;18.464;2023-01-26T10:19:18;100396.75;;;-1.05;95.05
59588;BME280;45412;54.472;18.464;2023-01-26T10:25:43;100392.65;;;-0.94;95.00
59588;BME280;45412;54.472;18.464;2023-01-26T10:28:34;100389.23;;;-0.89;94.68
59588;BME280;45412;54.472;18.464;2023-01-26T10:31:55;100393.13;;;-0.79;94.95
59588;BME280;45412;54.472;18.464;2023-01-26T10:34:48;100396.35;;;-0.68;94.58
59588;BME280;45412;54.472;18.464;2023-01-26T10:37:36;100393.62;;;-0.63;94.13
59588;BME280;45412;54.472;18.464;2023-01-26T10:40:24;100395.80;;;-0.61;94.02
59588;BME280;45412;54.472;18.464;2023-01-26T10:43:17;100395.27;;;-0.54;93.83
59588;BME280;45412;54.472;18.464;2023-01-26T10:46:05;100395.52;;;-0.49;93.68
59588;BME280;45412;54.472;18.464;2023-01-26T10:52:16;100392.66;;;-0.47;93.31
59588;BME280;45412;54.472;18.464;2023-01-26T10:55:19;100392.16;;;-0.48;93.73
59588;BME280;45412;54.472;18.464;2023-01-26T10:58:50;100394.54;;;-0.45;93.69
59588;BME280;45412;54.472;18.464;2023-01-26T11:01:56;100392.90;;;-0.43;93.47
59588;BME280;45412;54.472;18.464;2023-01-26T11:07:56;100397.30;;;-0.38;93.50
59588;BME280;45412;54.472;18.464;2023-01-26T11:10:52;100394.40;;;-0.34;93.33
59588;BME280;45412;54.472;18.464;2023-01-26T11:13:40;100393.30;;;-0.31;93.33
59588;BME280;45412;54.472;18.464;2023-01-26T11:16:28;100389.40;;;-0.29;93.42
59588;BME280;45412;54.472;18.464;2023-01-26T11:19:50;100384.36;;;-0.30;93.43
59588;BME280;45412;54.472;18.464;2023-01-26T11:22:51;100378.39;;;-0.29;93.38
59588;BME280;45412;54.472;18.464;2023-01-26T11:39:14;100376.47;;;-0.35;93.41
59588;BME280;45412;54.472;18.464;2023-01-26T11:42:43;100374.73;;;-0.36;93.68
59588;BME280;45412;54.472;18.464;2023-01-26T11:49:58;100368.30;;;-0.48;93.78
59588;BME280;45412;54.472;18.464;2023-01-26T11:53:29;100363.35;;;-0.53;94.09
59588;BME280;45412;54.472;18.464;2023-01-26T11:59:50;100362.67;;;-0.54;94.65
59588;BME280;45412;54.472;18.464;2023-01-26T12:02:42;100361.85;;;-0.55;94.74
59588;BME280;45412;54.472;18.464;2023-01-26T12:05:41;100353.73;;;-0.52;95.02
59588;BME280;45412;54.472;18.464;2023-01-26T12:12:09;100342.31;;;-0.48;94.96
59588;BME280;45412;54.472;18.464;2023-01-26T12:15:09;100339.53;;;-0.49;94.91
59588;BME280;45412;54.472;18.464;2023-01-26T12:18:18;100341.88;;;-0.46;95.05
59588;BME280;45412;54.472;18.464;2023-01-26T12:21:10;100337.43;;;-0.42;94.91
59588;BME280;45412;54.472;18.464;2023-01-26T12:24:02;100330.94;;;-0.41;94.69
59588;BME280;45412;54.472;18.464;2023-01-26T12:26:52;100325.97;;;-0.38;94.87
59588;BME280;45412;54.472;18.464;2023-01-26T12:29:51;100318.33;;;-0.32;94.84
59588;BME280;45412;54.472;18.464;2023-01-26T12:32:41;100311.03;;;-0.27;94.67
59588;BME280;45412;54.472;18.464;2023-01-26T12:39:11;100305.16;;;-0.24;94.35
59588;BME280;45412;54.472;18.464;2023-01-26T12:44:59;100291.42;;;-0.24;94.18
59588;BME280;45412;54.472;18.464;2023-01-26T12:48:05;100285.82;;;-0.24;94.16
59588;BME280;45412;54.472;18.464;2023-01-26T12:51:09;100282.16;;;-0.24;94.05
59588;BME280;45412;54.472;18.464;2023-01-26T12:54:11;100285.08;;;-0.28;94.25
59588;BME280;45412;54.472;18.464;2023-01-26T12:57:04;100284.34;;;-0.33;94.45
59588;BME280;45412;54.472;18.464;2023-01-26T13:00:21;100283.27;;;-0.32;94.86
59588;BME280;45412;54.472;18.464;2023-01-26T13:03:33;100285.48;;;-0.30;94.72
59588;BME280;45412;54.472;18.464;2023-01-26T13:06:27;100287.66;;;-0.27;94.92
59588;BME280;45412;54.472;18.464;2023-01-26T13:09:25;100284.25;;;-0.29;94.67
59588;BME280;45412;54.472;18.464;2023-01-26T13:12:58;100282.94;;;-0.32;94.77
59588;BME280;45412;54.472;18.464;2023-01-26T13:19:03;100289.19;;;-0.38;95.17
59588;BME280;45412;54.472;18.464;2023-01-26T13:21:51;100290.63;;;-0.39;95.26
59588;BME280;45412;54.472;18.464;2023-01-26T13:33:17;100278.45;;;-0.28;95.34
59588;BME280;45412;54.472;18.464;2023-01-26T13:36:15;100281.73;;;-0.28;95.45
59588;BME280;45412;54.472;18.464;2023-01-26T13:39:37;100283.37;;;-0.29;95.37
59588;BME280;45412;54.472;18.464;2023-01-26T13:42:36;100283.29;;;-0.39;95.43
59588;BME280;45412;54.472;18.464;2023-01-26T13:45:42;100282.62;;;-0.46;95.60
59588;BME280;45412;54.472;18.464;2023-01-26T13:48:52;100282.25;;;-0.45;96.10
59588;BME280;45412;54.472;18.464;2023-01-26T13:51:41;100278.36;;;-0.43;96.23
59588;BME280;45412;54.472;18.464;2023-01-26T13:54:30;100279.85;;;-0.40;96.35
59588;BME280;45412;54.472;18.464;2023-01-26T13:57:27;100281.36;;;-0.38;96.38
59588;BME280;45412;54.472;18.464;2023-01-26T14:00:16;100280.23;;;-0.36;96.37
59588;BME280;45412;54.472;18.464;2023-01-26T14:03:04;100281.10;;;-0.35;96.40
59588;BME280;45412;54.472;18.464;2023-01-26T14:06:04;100280.20;;;-0.34;96.52
59588;BME280;45412;54.472;18.464;2023-01-26T14:08:56;100272.89;;;-0.41;96.34
59588;BME280;45412;54.472;18.464;2023-01-26T14:11:54;100279.14;;;-0.40;96.58
59588;BME280;45412;54.472;18.464;2023-01-26T14:14:46;100284.55;;;-0.40;96.88
59588;BME280;45412;54.472;18.464;2023-01-26T14:17:55;100290.95;;;-0.38;96.62
59588;BME280;45412;54.472;18.464;2023-01-26T14:20:47;100298.27;;;-0.38;96.61
59588;BME280;45412;54.472;18.464;2023-01-26T14:23:36;100301.42;;;-0.39;96.86
59588;BME280;45412;54.472;18.464;2023-01-26T14:26:30;100300.86;;;-0.38;96.97
59588;BME280;45412;54.472;18.464;2023-01-26T14:29:24;100302.19;;;-0.35;96.99
59588;BME280;45412;54.472;18.464;2023-01-26T14:32:15;100305.95;;;-0.32;97.04
59588;BME280;45412;54.472;18.464;2023-01-26T14:35:18;100309.12;;;-0.33;96.71
59588;BME280;45412;54.472;18.464;2023-01-26T14:38:15;100307.23;;;-0.35;96.95
59588;BME280;45412;54.472;18.464;2023-01-26T14:41:52;100305.05;;;-0.37;97.09
59588;BME280;45412;54.472;18.464;2023-01-26T14:44:20;100308.29;;;-0.35;97.22
59588;BME280;45412;54.472;18.464;2023-01-26T14:47:23;100314.70;;;-0.33;97.19
59588;BME280;45412;54.472;18.464;2023-01-26T14:50:40;100316.25;;;-0.32;97.09
59588;BME280;45412;54.472;18.464;2023-01-26T14:53:28;100312.60;;;-0.33;96.76
59588;BME280;45412;54.472;18.464;2023-01-26T14:56:22;100307.72;;;-0.33;96.93
59588;BME280;45412;54.472;18.464;2023-01-26T14:59:20;100306.20;;;-0.28;97.24
59588;BME280;45412;54.472;18.464;2023-01-26T15:02:25;100299.14;;;-0.26;97.27
59588;BME280;45412;54.472;18.464;2023-01-26T15:05:17;100299.08;;;-0.30;96.84
59588;BME280;45412;54.472;18.464;2023-01-26T15:08:26;100298.04;;;-0.36;97.08
59588;BME280;45412;54.472;18.464;2023-01-26T15:11:37;100299.05;;;-0.41;97.11
59588;BME280;45412;54.472;18.464;2023-01-26T15:17:41;100307.05;;;-0.47;97.54
59588;BME280;45412;54.472;18.464;2023-01-26T15:23:35;100314.47;;;-0.50;97.81
59588;BME280;45412;54.472;18.464;2023-01-26T15:26:29;100315.65;;;-0.48;97.97
59588;BME280;45412;54.472;18.464;2023-01-26T15:29:30;100313.98;;;-0.45;98.22
59588;BME280;45412;54.472;18.464;2023-01-26T15:32:38;100317.42;;;-0.43;98.33
59588;BME280;45412;54.472;18.464;2023-01-26T15:35:32;100312.14;;;-0.48;98.04
59588;BME280;45412;54.472;18.464;2023-01-26T15:38:21;100317.59;;;-0.43;98.30
59588;BME280;45412;54.472;18.464;2023-01-26T15:41:09;100322.02;;;-0.39;98.46
59588;BME280;45412;54.472;18.464;2023-01-26T15:43:57;100317.75;;;-0.37;98.40
59588;BME280;45412;54.472;18.464;2023-01-26T15:46:49;100317.80;;;-0.39;98.04
59588;BME280;45412;54.472;18.464;2023-01-26T15:49:37;100317.21;;;-0.42;98.31
59588;BME280;45412;54.472;18.464;2023-01-26T15:52:28;100313.79;;;-0.44;98.31
59588;BME280;45412;54.472;18.464;2023-01-26T15:55:24;100316.11;;;-0.46;98.58
59588;BME280;45412;54.472;18.464;2023-01-26T15:58:13;100318.60;;;-0.48;98.41
59588;BME280;45412;54.472;18.464;2023-01-26T16:01:01;100322.63;;;-0.49;98.60
59588;BME280;45412;54.472;18.464;2023-01-26T16:03:52;100320.58;;;-0.51;98.77
59588;BME280;45412;54.472;18.464;2023-01-26T16:06:41;100324.55;;;-0.49;99.01
59588;BME280;45412;54.472;18.464;2023-01-26T16:09:31;100327.12;;;-0.47;98.98
59588;BME280;45412;54.472;18.464;2023-01-26T16:12:19;100323.59;;;-0.46;99.00
59588;BME280;45412;54.472;18.464;2023-01-26T16:15:52;100313.91;;;-0.43;99.20